Time;durP1;ratioP1;P1;durP2;ratioP2;P2;SDS_P1;SDS_P2;PMS_P1;PMS_P2;Temp;Humidity;BMP_temperature;BMP_pressure;BME280_temperature;BME280_humidity;BME280_pressure;Samples;Min_cycle;Max_cycle;Signal;HPM_P1;HPM_P2
2024/01/25 00:00:50;;;;;;;7.85;1.38;;;10.60;78.40;;;;;;5048762;28;20087;-63
2024/01/25 00:03:15;;;;;;;5.47;1.30;;;10.60;78.30;;;;;;5050328;28;20031;-63
2024/01/25 00:05:41;;;;;;;4.95;1.05;;;10.60;78.30;;;;;;5042064;28;20110;-63
2024/01/25 00:08:07;;;;;;;9.40;1.70;;;10.60;78.30;;;;;;5050682;28;20459;-63
2024/01/25 00:10:32;;;;;;;7.88;1.65;;;10.60;78.30;;;;;;5047396;28;20040;-63
2024/01/25 00:12:58;;;;;;;9.20;1.48;;;10.60;78.20;;;;;;5042965;28;20462;-64
2024/01/25 00:15:24;;;;;;;9.18;1.80;;;10.70;79.20;;;;;;5047819;28;20037;-63
2024/01/25 00:17:49;;;;;;;8.25;1.45;;;10.60;78.00;;;;;;5048318;28;20412;-63
2024/01/25 00:20:15;;;;;;;7.57;1.60;;;10.70;78.20;;;;;;5048537;28;20068;-63
2024/01/25 00:22:41;;;;;;;7.97;1.40;;;10.70;78.20;;;;;;5047680;28;20509;-64
2024/01/25 00:25:07;;;;;;;6.53;1.20;;;10.60;78.10;;;;;;5044958;28;20033;-63
2024/01/25 00:27:33;;;;;;;8.73;1.33;;;10.70;78.20;;;;;;5046895;28;20041;-64
2024/01/25 00:29:58;;;;;;;7.43;1.42;;;10.70;78.40;;;;;;5043787;28;20083;-63
2024/01/25 00:32:24;;;;;;;8.32;1.33;;;10.70;78.40;;;;;;5048531;28;20048;-63
2024/01/25 00:34:50;;;;;;;8.57;1.55;;;10.70;78.40;;;;;;5043251;28;20081;-63
2024/01/25 00:37:15;;;;;;;7.97;1.10;;;10.60;78.30;;;;;;5044517;28;20033;-63
2024/01/25 00:39:42;;;;;;;12.27;2.05;;;10.70;78.40;;;;;;5045635;28;20037;-63
2024/01/25 00:42:07;;;;;;;8.52;1.63;;;10.70;78.40;;;;;;5042306;28;20336;-64
2024/01/25 00:44:33;;;;;;;5.97;1.30;;;10.70;78.40;;;;;;5049858;28;20041;-63
2024/01/25 00:46:59;;;;;;;7.93;1.50;;;10.70;78.50;;;;;;5045948;28;20033;-64
2024/01/25 00:49:25;;;;;;;10.68;1.73;;;10.70;78.50;;;;;;5045821;28;20067;-63
2024/01/25 00:52:02;;;;;;;6.32;1.35;;;10.70;78.60;;;;;;5046023;28;20082;-63
2024/01/25 00:54:28;;;;;;;8.70;1.58;;;10.70;78.60;;;;;;5041896;28;20132;-64
2024/01/25 00:56:53;;;;;;;8.57;1.67;;;10.70;78.60;;;;;;5045634;28;20132;-64
2024/01/25 00:59:20;;;;;;;6.35;1.40;;;10.70;78.60;;;;;;5043361;28;20041;-64
2024/01/25 01:01:52;;;;;;;9.50;1.67;;;10.70;78.60;;;;;;5045620;28;20520;-64
2024/01/25 01:04:18;;;;;;;10.93;1.70;;;10.70;78.60;;;;;;5045494;28;20045;-63
2024/01/25 01:06:44;;;;;;;8.15;1.48;;;10.70;78.60;;;;;;5044154;28;20036;-64
2024/01/25 01:09:09;;;;;;;6.57;1.48;;;10.70;78.70;;;;;;5049642;28;20036;-63
2024/01/25 01:11:36;;;;;;;9.73;1.40;;;10.70;78.70;;;;;;5047427;28;20143;-64
2024/01/25 01:14:02;;;;;;;12.43;1.50;;;10.70;78.70;;;;;;5040975;28;20040;-63
2024/01/25 01:16:30;;;;;;;7.03;1.45;;;10.70;78.70;;;;;;5046905;28;20033;-63
2024/01/25 01:18:56;;;;;;;7.47;1.63;;;10.70;78.70;;;;;;5042840;28;20252;-64
2024/01/25 01:21:21;;;;;;;6.95;1.50;;;10.70;78.70;;;;;;5047998;28;20040;-64
2024/01/25 01:23:47;;;;;;;7.90;1.35;;;10.70;78.70;;;;;;5043690;28;20041;-64
2024/01/25 01:26:12;;;;;;;9.40;1.65;;;10.70;78.70;;;;;;5044998;28;20036;-63
2024/01/25 01:28:38;;;;;;;11.32;1.30;;;10.70;78.60;;;;;;5043277;28;20060;-63
2024/01/25 01:31:04;;;;;;;7.85;1.40;;;10.70;78.50;;;;;;5047358;28;20029;-64
2024/01/25 01:33:29;;;;;;;6.75;1.48;;;10.70;78.40;;;;;;5046566;28;20083;-64
2024/01/25 01:35:55;;;;;;;7.20;1.52;;;10.70;78.40;;;;;;5043442;28;20519;-63
2024/01/25 01:38:20;;;;;;;8.30;1.70;;;10.70;78.40;;;;;;5045497;28;20033;-64
2024/01/25 01:40:46;;;;;;;6.97;1.27;;;10.70;78.30;;;;;;5043611;28;20420;-64
2024/01/25 01:43:19;;;;;;;7.97;1.20;;;10.70;78.10;;;;;;5042352;28;20025;-64
2024/01/25 01:45:45;;;;;;;5.28;1.30;;;10.70;78.00;;;;;;5046418;28;20041;-64
2024/01/25 01:48:11;;;;;;;8.00;1.40;;;10.70;78.20;;;;;;5045318;28;20116;-63
2024/01/25 01:50:37;;;;;;;5.88;1.08;;;10.70;78.20;;;;;;5046525;28;20044;-62
2024/01/25 01:53:04;;;;;;;5.13;1.08;;;10.70;78.10;;;;;;5042016;28;20054;-63
2024/01/25 01:55:31;;;;;;;5.45;1.00;;;10.70;78.10;;;;;;5045144;28;20081;-64
2024/01/25 01:57:57;;;;;;;6.30;1.15;;;10.70;78.00;;;;;;5044437;28;20037;-64
2024/01/25 02:00:25;;;;;;;5.13;1.13;;;10.70;77.90;;;;;;5043154;28;20021;-63
2024/01/25 02:02:51;;;;;;;7.68;1.05;;;10.70;78.00;;;;;;5041912;28;20427;-63
2024/01/25 02:05:16;;;;;;;5.68;1.00;;;10.70;78.00;;;;;;5039246;28;20029;-64
2024/01/25 02:07:42;;;;;;;4.82;1.20;;;10.70;78.00;;;;;;5043622;28;20052;-64
2024/01/25 02:10:08;;;;;;;5.03;1.20;;;10.70;78.00;;;;;;5046776;28;20028;-64
2024/01/25 02:12:34;;;;;;;6.70;1.30;;;10.70;78.00;;;;;;5047168;28;20040;-64
2024/01/25 02:15:00;;;;;;;4.65;0.82;;;10.70;78.20;;;;;;5047247;28;20025;-64
2024/01/25 02:17:26;;;;;;;4.38;0.82;;;10.70;78.30;;;;;;5044545;28;20048;-64
2024/01/25 02:19:51;;;;;;;5.25;0.98;;;10.70;78.40;;;;;;5042389;28;20075;-64
2024/01/25 02:22:19;;;;;;;5.88;0.95;;;10.70;78.40;;;;;;5047177;28;20037;-63
2024/01/25 02:24:45;;;;;;;6.85;0.98;;;10.70;78.50;;;;;;5043796;28;20044;-63
2024/01/25 02:27:10;;;;;;;7.35;1.35;;;10.70;78.50;;;;;;5044802;28;20091;-64
2024/01/25 02:29:36;;;;;;;5.53;1.10;;;10.70;78.70;;;;;;5045000;28;20044;-63
2024/01/25 02:32:02;;;;;;;5.50;1.00;;;10.70;78.90;;;;;;5042242;28;20030;-64
2024/01/25 02:34:28;;;;;;;5.97;0.95;;;10.80;79.10;;;;;;5047634;28;20051;-64
2024/01/25 02:36:53;;;;;;;8.57;1.30;;;10.70;79.10;;;;;;5043953;28;20045;-64
2024/01/25 02:39:19;;;;;;;4.60;1.20;;;10.70;79.20;;;;;;5043537;28;20049;-63
2024/01/25 02:41:44;;;;;;;6.78;1.25;;;10.80;79.40;;;;;;5041534;28;20412;-63
2024/01/25 02:44:11;;;;;;;3.60;1.08;;;10.70;79.40;;;;;;5042055;28;20044;-64
2024/01/25 02:46:37;;;;;;;6.03;1.10;;;10.70;79.50;;;;;;5046409;28;20294;-64
2024/01/25 02:49:03;;;;;;;6.40;1.40;;;10.70;80.30;;;;;;5042860;28;20037;-62
2024/01/25 02:51:29;;;;;;;4.85;1.00;;;10.70;79.60;;;;;;5042201;28;20044;-64
2024/01/25 02:53:55;;;;;;;3.60;1.00;;;10.70;79.70;;;;;;5033556;28;20065;-63
2024/01/25 02:56:20;;;;;;;3.92;0.93;;;10.70;79.80;;;;;;5044553;28;20128;-64
2024/01/25 02:58:46;;;;;;;5.57;1.02;;;10.70;80.00;;;;;;5041860;28;20033;-64
2024/01/25 03:01:11;;;;;;;6.45;1.05;;;10.60;80.10;;;;;;5044578;28;20505;-64
2024/01/25 03:03:38;;;;;;;4.90;1.35;;;10.70;80.30;;;;;;5044204;28;20033;-64
2024/01/25 03:06:06;;;;;;;4.75;1.05;;;10.60;80.30;;;;;;5039853;28;20039;-64
2024/01/25 03:08:31;;;;;;;3.88;1.00;;;10.60;80.40;;;;;;5050296;28;20435;-64
2024/01/25 03:10:57;;;;;;;4.65;1.00;;;10.60;80.70;;;;;;5044452;28;20040;-64
2024/01/25 03:13:23;;;;;;;4.43;0.93;;;10.50;80.80;;;;;;5049013;28;20120;-64
2024/01/25 03:15:48;;;;;;;4.80;1.13;;;10.50;81.00;;;;;;5049345;28;20057;-64
2024/01/25 03:18:14;;;;;;;6.07;1.15;;;10.50;81.00;;;;;;5045375;28;20517;-64
2024/01/25 03:20:39;;;;;;;5.70;1.05;;;10.50;81.20;;;;;;5047640;28;20033;-64
2024/01/25 03:23:05;;;;;;;7.22;1.02;;;10.40;81.30;;;;;;5046253;28;20022;-64
2024/01/25 03:25:31;;;;;;;3.40;1.05;;;10.40;81.50;;;;;;5046156;28;20025;-64
2024/01/25 03:27:57;;;;;;;5.93;1.00;;;10.40;82.50;;;;;;5049367;28;20040;-64
2024/01/25 03:30:22;;;;;;;5.20;1.15;;;10.30;82.00;;;;;;5050679;28;20018;-64
2024/01/25 03:32:48;;;;;;;3.65;0.88;;;10.30;82.30;;;;;;5045033;28;20370;-64
2024/01/25 03:35:14;;;;;;;8.60;1.42;;;10.30;82.60;;;;;;5048254;28;20037;-63
2024/01/25 03:37:39;;;;;;;3.42;0.95;;;10.20;82.70;;;;;;5049832;28;20489;-64
2024/01/25 03:40:05;;;;;;;6.50;1.10;;;10.20;83.00;;;;;;5047981;28;20041;-64
2024/01/25 03:42:31;;;;;;;3.35;1.05;;;10.10;83.00;;;;;;5045831;28;20452;-64
2024/01/25 03:44:57;;;;;;;3.88;0.98;;;10.10;83.20;;;;;;5047301;28;20037;-63
2024/01/25 03:47:23;;;;;;;4.53;0.88;;;10.00;83.50;;;;;;5046718;28;20056;-64
2024/01/25 03:49:48;;;;;;;5.30;1.00;;;10.00;83.60;;;;;;5045330;28;20056;-63
2024/01/25 03:52:14;;;;;;;4.25;0.88;;;10.00;84.00;;;;;;5046240;28;20033;-63
2024/01/25 03:54:39;;;;;;;4.85;1.35;;;10.00;84.20;;;;;;5046687;28;20037;-64
2024/01/25 03:57:05;;;;;;;5.18;0.90;;;9.90;84.40;;;;;;5043780;28;20052;-64
2024/01/25 03:59:31;;;;;;;6.10;1.10;;;9.90;84.60;;;;;;5046041;28;20068;-64
2024/01/25 04:01:56;;;;;;;5.13;1.10;;;9.90;84.80;;;;;;5043563;28;20124;-64
2024/01/25 04:04:22;;;;;;;5.20;1.08;;;9.80;85.00;;;;;;5044835;28;20120;-64
2024/01/25 04:06:48;;;;;;;2.50;0.60;;;9.80;85.10;;;;;;5049499;28;20033;-64
2024/01/25 04:09:15;;;;;;;3.35;0.98;;;9.80;85.30;;;;;;5052386;28;20033;-64
2024/01/25 04:11:40;;;;;;;7.20;1.33;;;9.80;85.50;;;;;;5049435;28;20033;-64
2024/01/25 04:14:06;;;;;;;2.33;1.02;;;9.80;85.90;;;;;;5045465;28;20041;-64
2024/01/25 04:16:33;;;;;;;5.25;1.30;;;9.70;86.00;;;;;;5049198;28;20040;-64
2024/01/25 04:18:58;;;;;;;3.95;1.10;;;9.70;86.20;;;;;;5046580;28;20037;-64
2024/01/25 04:21:24;;;;;;;6.45;1.10;;;9.70;86.40;;;;;;5042884;28;20033;-64
2024/01/25 04:23:49;;;;;;;5.88;1.25;;;9.70;86.60;;;;;;5044410;28;20052;-64
2024/01/25 04:26:18;;;;;;;4.22;0.95;;;9.60;86.90;;;;;;5043431;28;20029;-64
2024/01/25 04:28:43;;;;;;;6.80;1.00;;;9.60;87.30;;;;;;5045771;28;20060;-63
2024/01/25 04:31:09;;;;;;;5.10;0.82;;;9.60;87.50;;;;;;5048022;28;20121;-64
2024/01/25 04:33:35;;;;;;;3.53;0.80;;;9.50;87.90;;;;;;5046620;28;20059;-64
2024/01/25 04:36:00;;;;;;;8.18;1.13;;;9.50;88.00;;;;;;5044946;28;20399;-64
2024/01/25 04:38:26;;;;;;;7.72;1.40;;;9.50;88.20;;;;;;5045674;28;20437;-64
2024/01/25 04:40:52;;;;;;;4.60;0.98;;;9.50;88.30;;;;;;5044462;28;20025;-64
2024/01/25 04:43:17;;;;;;;4.13;1.10;;;9.50;88.30;;;;;;5045666;28;20029;-64
2024/01/25 04:45:43;;;;;;;4.93;1.25;;;9.50;88.30;;;;;;5045263;28;20381;-63
2024/01/25 04:48:08;;;;;;;4.38;1.05;;;9.50;88.30;;;;;;5046782;28;20033;-64
2024/01/25 04:50:34;;;;;;;6.63;1.27;;;9.50;88.30;;;;;;5045452;28;20041;-64
2024/01/25 04:53:02;;;;;;;4.47;1.00;;;9.50;88.30;;;;;;5043445;28;20447;-64
2024/01/25 04:55:27;;;;;;;2.22;0.70;;;9.50;88.60;;;;;;5043181;28;20029;-64
2024/01/25 04:57:53;;;;;;;4.03;1.13;;;9.50;88.50;;;;;;5045984;28;20037;-64
2024/01/25 05:00:21;;;;;;;3.40;0.85;;;9.50;88.50;;;;;;5044706;28;20447;-64
2024/01/25 05:02:47;;;;;;;2.05;0.63;;;9.50;88.50;;;;;;5044821;28;20021;-65
2024/01/25 05:05:13;;;;;;;2.45;0.55;;;9.50;88.30;;;;;;5047039;28;20505;-65
2024/01/25 05:07:39;;;;;;;4.30;0.90;;;9.50;88.30;;;;;;5046395;28;20040;-64
2024/01/25 05:10:05;;;;;;;3.28;0.60;;;9.50;88.20;;;;;;5046675;28;20095;-64
2024/01/25 05:12:30;;;;;;;3.83;0.80;;;9.50;88.30;;;;;;5042685;28;20110;-64
2024/01/25 05:14:56;;;;;;;3.30;0.80;;;9.50;88.20;;;;;;5045166;28;20059;-64
2024/01/25 05:17:21;;;;;;;3.88;0.70;;;9.50;88.30;;;;;;5048445;28;20052;-64
2024/01/25 05:19:47;;;;;;;4.10;0.57;;;9.50;88.30;;;;;;5044122;28;20056;-64
2024/01/25 05:22:12;;;;;;;2.60;0.60;;;9.50;88.50;;;;;;5043300;28;20468;-64
2024/01/25 05:24:38;;;;;;;3.03;0.77;;;9.50;88.70;;;;;;5043805;28;20044;-64
2024/01/25 05:27:04;;;;;;;1.58;0.82;;;9.50;89.00;;;;;;5043490;28;20034;-65
2024/01/25 05:29:29;;;;;;;2.85;1.10;;;9.50;89.00;;;;;;5036394;28;20227;-64
2024/01/25 05:31:55;;;;;;;2.67;0.90;;;9.40;89.00;;;;;;5043742;28;20595;-63
2024/01/25 05:34:21;;;;;;;4.68;0.73;;;9.40;89.00;;;;;;5038907;28;20116;-64
2024/01/25 05:36:47;;;;;;;2.00;0.88;;;9.40;88.90;;;;;;5040962;28;20198;-64
2024/01/25 05:39:13;;;;;;;1.45;0.70;;;9.40;88.90;;;;;;5042905;28;20048;-64
2024/01/25 05:41:39;;;;;;;3.50;0.80;;;9.40;88.90;;;;;;5043053;28;20040;-64
2024/01/25 05:44:05;;;;;;;2.92;0.73;;;9.40;88.60;;;;;;5042033;28;20044;-64
2024/01/25 05:46:30;;;;;;;1.75;0.35;;;9.40;88.50;;;;;;5037964;28;20033;-64
2024/01/25 05:48:56;;;;;;;1.23;0.40;;;9.40;88.20;;;;;;5044275;28;20090;-64
2024/01/25 05:51:21;;;;;;;1.42;0.50;;;9.40;87.60;;;;;;5043820;28;20033;-64
2024/01/25 05:53:47;;;;;;;2.28;0.30;;;9.40;87.20;;;;;;5041163;28;20056;-64
2024/01/25 05:56:12;;;;;;;2.72;0.45;;;9.40;86.80;;;;;;5038544;28;20030;-64
2024/01/25 05:58:38;;;;;;;0.40;0.35;;;9.40;86.70;;;;;;5041988;28;20128;-64
2024/01/25 06:01:04;;;;;;;1.73;0.40;;;9.40;86.70;;;;;;5040004;28;20585;-64
2024/01/25 06:03:30;;;;;;;2.25;0.40;;;9.40;86.60;;;;;;5042228;28;20029;-64
2024/01/25 06:05:55;;;;;;;2.25;0.40;;;9.40;86.50;;;;;;5036109;28;20527;-64
2024/01/25 06:08:21;;;;;;;2.83;0.30;;;9.40;86.30;;;;;;5036363;28;20035;-64
2024/01/25 06:10:47;;;;;;;1.25;0.50;;;9.40;86.20;;;;;;5044508;28;20040;-63
2024/01/25 06:13:12;;;;;;;2.70;0.45;;;9.40;86.20;;;;;;5044595;28;20037;-65
2024/01/25 06:15:38;;;;;;;0.73;0.30;;;9.40;86.00;;;;;;5049381;28;20033;-64
2024/01/25 06:18:04;;;;;;;2.05;0.38;;;9.40;86.00;;;;;;5041422;28;20560;-65
2024/01/25 06:20:30;;;;;;;1.17;0.38;;;9.40;85.90;;;;;;5039727;28;20171;-64
2024/01/25 06:22:55;;;;;;;0.65;0.30;;;9.30;85.60;;;;;;5042427;28;20060;-64
2024/01/25 06:25:22;;;;;;;0.60;0.40;;;9.40;85.60;;;;;;5046398;28;20068;-64
2024/01/25 06:27:48;;;;;;;2.13;0.40;;;9.40;85.60;;;;;;5044905;28;20036;-64
2024/01/25 06:30:14;;;;;;;2.88;0.60;;;9.40;85.60;;;;;;5042163;28;20108;-64
2024/01/25 06:32:39;;;;;;;2.00;0.82;;;9.40;85.60;;;;;;5044943;28;20041;-64
2024/01/25 06:35:06;;;;;;;1.25;0.47;;;9.40;85.50;;;;;;5044941;28;20033;-63
2024/01/25 06:37:31;;;;;;;1.00;0.50;;;9.30;85.20;;;;;;5040750;28;20033;-64
2024/01/25 06:39:57;;;;;;;2.65;0.60;;;9.30;85.10;;;;;;5044715;28;20701;-64
2024/01/25 06:42:22;;;;;;;1.83;0.47;;;9.30;85.10;;;;;;5041697;28;20037;-64
2024/01/25 06:44:48;;;;;;;4.03;0.50;;;9.30;85.00;;;;;;5043105;28;20033;-64
2024/01/25 06:47:14;;;;;;;2.65;0.60;;;9.30;85.00;;;;;;5047735;28;20062;-64
2024/01/25 06:49:39;;;;;;;2.42;0.90;;;9.30;84.80;;;;;;5047655;28;20048;-63
2024/01/25 06:52:05;;;;;;;3.63;0.90;;;9.30;84.80;;;;;;5046345;28;20034;-63
2024/01/25 06:54:31;;;;;;;1.98;0.75;;;9.30;84.80;;;;;;5044500;28;20037;-64
2024/01/25 06:56:57;;;;;;;1.30;0.57;;;9.30;84.80;;;;;;5043713;28;20043;-64
2024/01/25 06:59:23;;;;;;;2.97;0.82;;;9.30;84.80;;;;;;5049632;28;20044;-64
2024/01/25 07:01:49;;;;;;;2.85;0.65;;;9.30;84.90;;;;;;5044292;28;20032;-63
2024/01/25 07:04:15;;;;;;;4.30;0.77;;;9.30;84.80;;;;;;5045972;28;20393;-64
2024/01/25 07:06:41;;;;;;;1.88;0.85;;;9.20;84.70;;;;;;5043680;28;20411;-63
2024/01/25 07:09:07;;;;;;;2.28;0.60;;;9.20;84.80;;;;;;5043707;28;20045;-64
2024/01/25 07:11:32;;;;;;;4.60;1.38;;;9.20;84.90;;;;;;5048587;28;20377;-64
2024/01/25 07:13:58;;;;;;;2.00;0.80;;;9.20;85.00;;;;;;5044829;28;20045;-64
2024/01/25 07:16:24;;;;;;;2.13;0.75;;;9.20;84.90;;;;;;5047717;28;20041;-63
2024/01/25 07:18:49;;;;;;;2.30;0.70;;;9.20;84.80;;;;;;5045144;28;20131;-64
2024/01/25 07:21:15;;;;;;;1.95;0.50;;;9.30;84.70;;;;;;5044717;28;20100;-64
2024/01/25 07:23:41;;;;;;;2.88;0.75;;;9.30;84.60;;;;;;5045449;28;20120;-64
2024/01/25 07:26:06;;;;;;;3.42;0.70;;;9.30;84.50;;;;;;5046796;28;20104;-64
2024/01/25 07:28:32;;;;;;;4.85;0.90;;;9.30;84.30;;;;;;5047020;28;20033;-64
2024/01/25 07:30:57;;;;;;;9.40;1.00;;;9.30;84.10;;;;;;5045084;28;20036;-64
2024/01/25 07:33:23;;;;;;;2.67;0.82;;;9.30;84.10;;;;;;5044228;28;20029;-64
2024/01/25 07:35:49;;;;;;;4.18;0.95;;;9.30;84.10;;;;;;5046262;28;20021;-64
2024/01/25 07:38:15;;;;;;;4.20;0.88;;;9.30;84.00;;;;;;5044955;28;20044;-64
2024/01/25 07:40:41;;;;;;;3.85;1.00;;;9.30;84.10;;;;;;5049348;28;20060;-64
2024/01/25 07:43:07;;;;;;;3.60;0.70;;;9.30;84.00;;;;;;5046030;28;20108;-64
2024/01/25 07:45:33;;;;;;;4.82;0.85;;;9.30;84.10;;;;;;5047351;28;20520;-64
2024/01/25 07:47:59;;;;;;;3.42;0.80;;;9.30;84.10;;;;;;5043962;28;20495;-64
2024/01/25 07:50:24;;;;;;;3.30;0.77;;;9.40;84.10;;;;;;5045315;28;20030;-64
2024/01/25 07:52:50;;;;;;;3.22;0.70;;;9.30;84.10;;;;;;5042016;28;20040;-64
2024/01/25 07:55:16;;;;;;;2.25;0.75;;;9.30;84.20;;;;;;5048538;28;20392;-64
2024/01/25 07:57:42;;;;;;;1.95;0.52;;;9.40;85.20;;;;;;5044754;28;20044;-64
2024/01/25 08:00:08;;;;;;;2.70;0.50;;;9.40;84.20;;;;;;5047405;28;20303;-64
2024/01/25 08:02:35;;;;;;;2.67;0.80;;;9.30;84.10;;;;;;5045466;28;20501;-64
2024/01/25 08:05:01;;;;;;;2.90;0.40;;;9.30;83.90;;;;;;5043422;28;20048;-64
2024/01/25 08:07:26;;;;;;;3.03;0.68;;;9.30;83.80;;;;;;5044141;28;20041;-63
2024/01/25 08:09:52;;;;;;;2.83;0.80;;;9.30;83.60;;;;;;5042219;28;20032;-64
2024/01/25 08:12:18;;;;;;;5.63;1.20;;;9.30;83.50;;;;;;5042023;28;20048;-64
2024/01/25 08:14:44;;;;;;;6.82;1.20;;;9.30;83.40;;;;;;5045961;28;20045;-64
2024/01/25 08:17:10;;;;;;;3.08;1.20;;;9.30;83.30;;;;;;5044879;28;20430;-64
2024/01/25 08:19:36;;;;;;;6.22;1.13;;;9.30;83.20;;;;;;5046542;28;20049;-64
2024/01/25 08:22:01;;;;;;;4.45;1.15;;;9.20;83.10;;;;;;5046929;28;20051;-65
2024/01/25 08:24:27;;;;;;;7.57;1.23;;;9.20;83.20;;;;;;5048196;28;20032;-64
2024/01/25 08:26:53;;;;;;;4.00;0.90;;;9.20;83.10;;;;;;5043464;28;20459;-64
2024/01/25 08:29:18;;;;;;;5.80;1.23;;;9.20;83.00;;;;;;5043985;28;20032;-63
2024/01/25 08:31:44;;;;;;;5.03;0.93;;;9.20;83.10;;;;;;5044822;28;20113;-64
2024/01/25 08:34:10;;;;;;;5.07;1.20;;;9.20;83.30;;;;;;5044160;28;20095;-64
2024/01/25 08:36:35;;;;;;;3.35;1.02;;;9.20;83.30;;;;;;5042725;28;20037;-65
2024/01/25 08:39:01;;;;;;;3.83;1.10;;;9.30;83.30;;;;;;5046845;28;20103;-65
2024/01/25 08:41:27;;;;;;;4.78;1.17;;;9.30;83.30;;;;;;5043529;28;20094;-64
2024/01/25 08:43:53;;;;;;;5.60;0.88;;;9.30;83.40;;;;;;5043796;28;20041;-64
2024/01/25 08:46:19;;;;;;;3.72;0.90;;;9.30;83.30;;;;;;5046981;28;20031;-65
2024/01/25 08:48:44;;;;;;;6.38;1.30;;;9.30;83.20;;;;;;5046429;28;20033;-64
2024/01/25 08:51:10;;;;;;;4.85;1.00;;;9.40;83.20;;;;;;5046955;28;20075;-65
2024/01/25 08:53:35;;;;;;;5.78;1.50;;;9.40;83.10;;;;;;5042914;28;20419;-65
2024/01/25 08:56:01;;;;;;;3.38;0.73;;;9.40;83.20;;;;;;5041738;28;20032;-64
2024/01/25 08:58:27;;;;;;;4.35;1.02;;;9.50;83.30;;;;;;5040421;28;20059;-64
2024/01/25 09:00:52;;;;;;;4.95;0.90;;;9.50;83.10;;;;;;5044949;28;20215;-64
2024/01/25 09:03:18;;;;;;;6.50;0.98;;;9.60;83.10;;;;;;5042547;28;20384;-64
2024/01/25 09:05:46;;;;;;;4.40;1.00;;;9.60;83.00;;;;;;5045020;28;20029;-64
2024/01/25 09:08:13;;;;;;;4.82;0.98;;;9.60;82.60;;;;;;5048373;28;20442;-64
2024/01/25 09:10:40;;;;;;;5.00;1.08;;;9.60;82.50;;;;;;5046600;28;20492;-64
2024/01/25 09:13:06;;;;;;;4.13;0.88;;;9.70;82.70;;;;;;5043674;28;20033;-64
2024/01/25 09:15:31;;;;;;;3.50;0.90;;;9.70;82.50;;;;;;5044624;28;20103;-64
2024/01/25 09:17:57;;;;;;;4.47;0.70;;;9.70;82.20;;;;;;5042223;28;20120;-64
2024/01/25 09:20:23;;;;;;;3.10;0.85;;;9.70;82.20;;;;;;5044963;28;20072;-64
2024/01/25 09:22:48;;;;;;;2.90;0.75;;;9.70;82.00;;;;;;5044004;28;20044;-63
2024/01/25 09:25:14;;;;;;;4.32;1.10;;;9.80;82.40;;;;;;5044200;28;20528;-64
2024/01/25 09:27:39;;;;;;;6.75;0.98;;;9.80;82.40;;;;;;5043010;28;20498;-63
2024/01/25 09:30:06;;;;;;;4.20;0.93;;;9.90;82.40;;;;;;5040891;28;20045;-64
2024/01/25 09:32:31;;;;;;;4.00;1.02;;;9.80;81.90;;;;;;5045968;28;20036;-63
2024/01/25 09:34:57;;;;;;;5.68;1.02;;;9.90;81.70;;;;;;5043876;28;20033;-64
2024/01/25 09:37:24;;;;;;;5.65;1.10;;;10.00;81.70;;;;;;5046622;28;20037;-64
2024/01/25 09:39:51;;;;;;;6.38;1.13;;;10.10;80.80;;;;;;5044412;28;20500;-64
2024/01/25 09:42:18;;;;;;;5.10;1.05;;;10.00;80.60;;;;;;5041862;28;20049;-64
2024/01/25 09:44:44;;;;;;;4.88;0.95;;;10.00;80.00;;;;;;5042545;28;20060;-64
2024/01/25 09:47:10;;;;;;;5.00;1.10;;;10.00;80.70;;;;;;5044101;28;20043;-64
2024/01/25 09:49:35;;;;;;;8.82;1.75;;;10.00;79.80;;;;;;5042452;28;20075;-64
2024/01/25 09:52:05;;;;;;;8.43;1.23;;;10.00;79.50;;;;;;5042069;28;20035;-64
2024/01/25 09:54:37;;;;;;;5.05;1.00;;;10.00;79.40;;;;;;5042814;28;20057;-64
2024/01/25 09:57:08;;;;;;;5.00;1.15;;;10.00;78.80;;;;;;5042231;28;20095;-64
2024/01/25 09:59:34;;;;;;;8.95;1.23;;;10.00;79.10;;;;;;5045894;28;20041;-64
2024/01/25 10:02:01;;;;;;;5.05;1.17;;;10.10;79.30;;;;;;5041700;28;20046;-64
2024/01/25 10:04:27;;;;;;;5.53;1.23;;;10.00;79.10;;;;;;5047444;28;20472;-64
2024/01/25 10:06:56;;;;;;;5.10;0.80;;;10.00;79.10;;;;;;5043272;28;20069;-64
2024/01/25 10:09:22;;;;;;;4.22;1.02;;;10.00;79.30;;;;;;5045924;28;20091;-64
2024/01/25 10:11:48;;;;;;;4.22;1.10;;;10.00;79.50;;;;;;5044836;28;20065;-64
2024/01/25 10:14:13;;;;;;;4.80;1.00;;;10.10;79.60;;;;;;5039482;28;20060;-64
2024/01/25 10:16:39;;;;;;;4.43;1.17;;;10.10;79.70;;;;;;5043947;28;20040;-64
2024/01/25 10:19:07;;;;;;;6.63;1.20;;;10.20;80.00;;;;;;5040326;28;20072;-64
2024/01/25 10:21:35;;;;;;;4.55;1.20;;;10.20;79.80;;;;;;5042422;28;20040;-64
2024/01/25 10:24:01;;;;;;;5.18;0.93;;;10.30;79.80;;;;;;5044170;28;20044;-65
2024/01/25 10:26:28;;;;;;;5.90;1.30;;;10.30;79.30;;;;;;5042466;28;20041;-63
2024/01/25 10:28:54;;;;;;;6.65;1.27;;;10.40;79.50;;;;;;5042612;28;20037;-64
2024/01/25 10:31:24;;;;;;;7.28;1.48;;;10.50;78.90;;;;;;5041878;28;20033;-64
2024/01/25 10:33:53;;;;;;;4.95;1.58;;;10.50;78.90;;;;;;5039352;28;20446;-64
2024/01/25 10:36:23;;;;;;;6.60;1.42;;;10.60;79.30;;;;;;5044309;28;20037;-63
2024/01/25 10:38:50;;;;;;;7.38;1.30;;;10.70;79.10;;;;;;5040998;28;22064;-64
2024/01/25 10:41:17;;;;;;;5.88;1.45;;;10.70;78.70;;;;;;5041646;28;20056;-64
2024/01/25 10:43:42;;;;;;;7.55;1.05;;;10.80;78.10;;;;;;5040324;28;20083;-64
2024/01/25 10:46:08;;;;;;;7.00;1.35;;;10.80;77.80;;;;;;5043046;28;20037;-64
2024/01/25 10:48:34;;;;;;;6.25;1.42;;;10.90;77.60;;;;;;5043001;28;20037;-64
2024/01/25 10:51:02;;;;;;;6.63;1.58;;;11.00;77.20;;;;;;5040729;28;20043;-65
2024/01/25 10:53:31;;;;;;;3.92;1.10;;;11.00;76.90;;;;;;5043591;28;20096;-64
2024/01/25 10:55:57;;;;;;;5.85;1.10;;;11.00;76.50;;;;;;5041434;28;20037;-64
2024/01/25 10:58:22;;;;;;;8.95;1.38;;;11.00;77.00;;;;;;5042455;28;20040;-64
2024/01/25 11:01:01;;;;;;;5.15;1.27;;;11.00;76.20;;;;;;5045507;28;20463;-65
2024/01/25 11:03:27;;;;;;;3.83;1.17;;;11.00;75.40;;;;;;5042520;28;20128;-64
2024/01/25 11:05:55;;;;;;;3.88;1.00;;;11.10;76.80;;;;;;5038395;28;20408;-64
2024/01/25 11:08:21;;;;;;;4.40;1.05;;;11.10;76.00;;;;;;5048314;28;20025;-63
2024/01/25 11:10:52;;;;;;;4.57;1.23;;;11.10;75.90;;;;;;5045332;28;20141;-64
2024/01/25 11:13:25;;;;;;;3.58;1.00;;;11.10;75.40;;;;;;5041963;28;20376;-64
2024/01/25 11:15:51;;;;;;;5.30;0.80;;;11.20;74.40;;;;;;5044041;28;20041;-64
2024/01/25 11:18:17;;;;;;;4.30;0.95;;;11.10;74.40;;;;;;5043579;28;20036;-64
2024/01/25 11:20:46;;;;;;;7.00;1.42;;;11.10;74.50;;;;;;5041770;28;20492;-64
2024/01/25 11:23:16;;;;;;;6.28;1.10;;;11.10;73.70;;;;;;5037758;28;20464;-64
2024/01/25 11:25:45;;;;;;;4.88;1.02;;;11.10;74.10;;;;;;5039760;28;20032;-64
2024/01/25 11:28:13;;;;;;;4.65;1.13;;;11.10;74.90;;;;;;5044865;28;20497;-63
2024/01/25 11:30:39;;;;;;;4.65;1.20;;;11.10;75.00;;;;;;5043552;28;20237;-64
2024/01/25 11:33:07;;;;;;;5.68;1.00;;;11.10;74.00;;;;;;5044588;28;20548;-64
2024/01/25 11:35:33;;;;;;;4.80;1.10;;;11.20;74.00;;;;;;5050168;28;20086;-64
2024/01/25 11:37:59;;;;;;;5.20;0.95;;;11.20;74.20;;;;;;5044682;28;20029;-63
2024/01/25 11:40:25;;;;;;;5.40;1.08;;;11.20;74.40;;;;;;5046927;28;20033;-64
2024/01/25 11:42:51;;;;;;;3.83;0.80;;;11.30;74.00;;;;;;5038815;28;20044;-64
2024/01/25 11:45:17;;;;;;;4.07;1.08;;;11.30;74.00;;;;;;5041310;28;20040;-64
2024/01/25 11:47:44;;;;;;;5.05;0.90;;;11.40;74.30;;;;;;5038899;28;20033;-64
2024/01/25 11:50:12;;;;;;;2.65;0.60;;;11.50;74.40;;;;;;5048620;28;20037;-64
2024/01/25 11:52:38;;;;;;;5.60;0.68;;;11.50;74.40;;;;;;5048253;28;20535;-64
2024/01/25 11:55:06;;;;;;;5.78;0.68;;;11.60;74.20;;;;;;5043364;28;20044;-63
2024/01/25 11:57:37;;;;;;;3.83;1.10;;;11.70;73.60;;;;;;5046894;28;20115;-64
2024/01/25 12:00:05;;;;;;;4.25;1.15;;;11.70;73.00;;;;;;5038964;28;20065;-64
2024/01/25 12:02:31;;;;;;;4.32;0.80;;;11.70;72.60;;;;;;5046302;28;20128;-64
2024/01/25 12:04:57;;;;;;;5.85;0.73;;;11.70;72.50;;;;;;5043184;28;20175;-64
2024/01/25 12:07:22;;;;;;;4.57;0.95;;;11.70;72.80;;;;;;5045695;28;20041;-64
2024/01/25 12:10:05;;;;;;;5.70;1.00;;;11.60;73.00;;;;;;5046636;28;20500;-64
2024/01/25 12:12:31;;;;;;;5.57;1.10;;;11.60;72.60;;;;;;5043798;28;20029;-64
2024/01/25 12:15:00;;;;;;;3.72;0.90;;;11.60;73.20;;;;;;5046924;28;20033;-64
2024/01/25 12:17:28;;;;;;;3.70;0.77;;;11.60;72.50;;;;;;5045364;28;20075;-64
2024/01/25 12:19:57;;;;;;;4.57;0.80;;;11.60;72.50;;;;;;5042432;28;20068;-63
2024/01/25 12:22:24;;;;;;;2.42;0.98;;;11.70;73.00;;;;;;5044091;28;20399;-63
2024/01/25 12:24:53;;;;;;;4.55;0.85;;;11.60;73.30;;;;;;5045986;28;20041;-64
2024/01/25 12:27:22;;;;;;;5.35;0.90;;;11.70;73.00;;;;;;5046437;28;20066;-64
2024/01/25 12:29:48;;;;;;;6.00;1.08;;;11.70;73.20;;;;;;5044885;28;20037;-63
2024/01/25 12:32:14;;;;;;;4.38;0.85;;;11.70;73.20;;;;;;5045924;28;20036;-63
2024/01/25 12:34:41;;;;;;;2.45;1.00;;;11.80;72.90;;;;;;5042421;28;20064;-64
2024/01/25 12:37:07;;;;;;;5.47;1.10;;;11.80;72.60;;;;;;5049284;28;20029;-65
2024/01/25 12:39:33;;;;;;;5.43;1.20;;;11.80;72.10;;;;;;5047469;28;20044;-64
2024/01/25 12:41:58;;;;;;;2.53;0.88;;;11.80;72.50;;;;;;5043385;28;20025;-64
2024/01/25 12:44:24;;;;;;;2.45;1.05;;;11.80;73.00;;;;;;5045316;28;20529;-64